This is the latest recevied weather packets stored in our database for station/object N5CSU. If no packets are shown the sender has not sent any weather packets the latest 10 day(s).
| Time | Temp. | Humidity | Pressure | Rain* | Wind** | Luminosity | Snow |
|---|---|---|---|---|---|---|---|
| 1777506190 | 16.67° C | 86% | 1012.7 hPa | 0 mm | - | 3 W/m² | - |
| 1777505886 | 16.67° C | 86% | 1013 hPa | 0 mm | - | 4 W/m² | - |
| 1777505582 | 17.22° C | 88% | 1013 hPa | 0 mm | - | 4 W/m² | - |
| 1777505279 | 16.67° C | 87% | 1013 hPa | 0 mm | - | 4 W/m² | - |
| 1777504976 | 16.67° C | 88% | 1013.1 hPa | 0 mm | - | 5 W/m² | - |
| 1777504673 | 16.67° C | 88% | 1013.2 hPa | 0 mm | - | 4 W/m² | - |
| 1777504370 | 16.67° C | 88% | 1013.3 hPa | 0 mm | - | 4 W/m² | - |
| 1777504069 | 16.67° C | 88% | 1013.2 hPa | 0 mm | - | 6 W/m² | - |
| 1777503766 | 16.67° C | 89% | 1013.3 hPa | 0 mm | - | 5 W/m² | - |
| 1777503463 | 16.67° C | 89% | 1013.7 hPa | 0 mm | - | 2 W/m² | - |
| 1777503159 | 16.67° C | 90% | 1013.3 hPa | 0 mm | - | 4 W/m² | - |
| 1777502857 | 16.67° C | 89% | 1013.7 hPa | 0 mm | - | 3 W/m² | - |
| 1777502554 | 16.67° C | 90% | 1014 hPa | 0 mm | - | 2 W/m² | - |
| 1777502251 | 16.67° C | 89% | 1013.8 hPa | 0 mm | - | 3 W/m² | - |
| 1777501948 | 17.22° C | 90% | 1013.6 hPa | 0 mm | - | 4 W/m² | - |
| 1777501645 | 17.22° C | 89% | 1013.5 hPa | 0 mm | - | 5 W/m² | - |
| 1777501342 | 17.22° C | 89% | 1013.6 hPa | 0 mm | - | 5 W/m² | - |
| 1777501040 | 17.22° C | 88% | 1013.6 hPa | 0 mm | - | 5 W/m² | - |
| 1777500737 | 17.78° C | 88% | 1013.4 hPa | 0 mm | - | 5 W/m² | - |
| 1777500434 | 17.78° C | 86% | 1013 hPa | 0 mm | - | 8 W/m² | - |
| 1777500130 | 17.22° C | 86% | 1013 hPa | 0 mm | - | 14 W/m² | - |
| 1777499827 | 17.22° C | 88% | 1012.8 hPa | 0 mm | - | 15 W/m² | - |
| 1777499523 | 17.22° C | 89% | 1013.1 hPa | 0 mm | - | 9 W/m² | - |
| 1777499221 | 17.22° C | 87% | 1013.1 hPa | 0 mm | - | 9 W/m² | - |
| 1777498918 | 17.22° C | 90% | 1012.9 hPa | 0 mm | - | 10 W/m² | - |
* Rain latest hour (hover to see other rain measurements)
** Current wind speed in m/s (hover to see current wind gust speed)